sensor_id;sensor_type;location;lat;lon;timestamp;temperature;humidity
2999;DHT22;1509;51.964;7.628;2023-07-08T00:00:25;21.00;99.90
2999;DHT22;1509;51.964;7.628;2023-07-08T00:02:51;21.20;99.90
2999;DHT22;1509;51.964;7.628;2023-07-08T00:05:20;21.10;99.90
2999;DHT22;1509;51.964;7.628;2023-07-08T00:07:46;21.10;99.90
2999;DHT22;1509;51.964;7.628;2023-07-08T00:10:13;20.90;99.90
2999;DHT22;1509;51.964;7.628;2023-07-08T00:12:40;21.30;99.90
2999;DHT22;1509;51.964;7.628;2023-07-08T00:15:06;21.10;99.90
2999;DHT22;1509;51.964;7.628;2023-07-08T00:17:31;21.10;99.90
2999;DHT22;1509;51.964;7.628;2023-07-08T00:19:57;21.00;99.90
2999;DHT22;1509;51.964;7.628;2023-07-08T00:22:23;21.00;99.90
2999;DHT22;1509;51.964;7.628;2023-07-08T00:24:50;20.90;99.90
2999;DHT22;1509;51.964;7.628;2023-07-08T00:27:16;20.90;99.90
2999;DHT22;1509;51.964;7.628;2023-07-08T00:29:42;20.80;99.90
2999;DHT22;1509;51.964;7.628;2023-07-08T00:32:11;20.80;99.90
2999;DHT22;1509;51.964;7.628;2023-07-08T00:34:37;20.80;99.90
2999;DHT22;1509;51.964;7.628;2023-07-08T00:37:02;20.80;99.90
2999;DHT22;1509;51.964;7.628;2023-07-08T00:39:33;20.70;99.90
2999;DHT22;1509;51.964;7.628;2023-07-08T00:42:01;20.60;99.90
2999;DHT22;1509;51.964;7.628;2023-07-08T00:44:32;20.60;99.90
2999;DHT22;1509;51.964;7.628;2023-07-08T00:47:09;20.50;99.90
2999;DHT22;1509;51.964;7.628;2023-07-08T00:49:49;20.50;99.90
2999;DHT22;1509;51.964;7.628;2023-07-08T00:54:43;20.60;99.90
2999;DHT22;1509;51.964;7.628;2023-07-08T00:57:08;20.40;99.90
2999;DHT22;1509;51.964;7.628;2023-07-08T00:59:52;20.40;99.90
2999;DHT22;1509;51.964;7.628;2023-07-08T01:02:21;20.30;99.90
2999;DHT22;1509;51.964;7.628;2023-07-08T01:07:17;20.30;99.90
2999;DHT22;1509;51.964;7.628;2023-07-08T01:09:53;20.30;99.90
2999;DHT22;1509;51.964;7.628;2023-07-08T01:12:26;20.20;99.90
2999;DHT22;1509;51.964;7.628;2023-07-08T01:14:53;20.30;99.90
2999;DHT22;1509;51.964;7.628;2023-07-08T01:17:23;20.20;99.90
2999;DHT22;1509;51.964;7.628;2023-07-08T01:19:49;19.90;99.90
2999;DHT22;1509;51.964;7.628;2023-07-08T01:22:16;20.00;99.90
2999;DHT22;1509;51.964;7.628;2023-07-08T01:24:43;20.10;99.90
2999;DHT22;1509;51.964;7.628;2023-07-08T01:27:13;20.10;99.90
2999;DHT22;1509;51.964;7.628;2023-07-08T01:29:40;20.10;99.90
2999;DHT22;1509;51.964;7.628;2023-07-08T01:32:06;20.10;99.90
2999;DHT22;1509;51.964;7.628;2023-07-08T01:34:33;20.00;99.90
2999;DHT22;1509;51.964;7.628;2023-07-08T01:37:01;19.90;99.90
2999;DHT22;1509;51.964;7.628;2023-07-08T01:39:30;20.00;99.90
2999;DHT22;1509;51.964;7.628;2023-07-08T01:41:56;19.90;99.90
2999;DHT22;1509;51.964;7.628;2023-07-08T01:44:34;19.90;99.90
2999;DHT22;1509;51.964;7.628;2023-07-08T01:47:11;19.90;99.90
2999;DHT22;1509;51.964;7.628;2023-07-08T01:49:39;19.80;99.90
2999;DHT22;1509;51.964;7.628;2023-07-08T01:52:06;20.00;99.90
2999;DHT22;1509;51.964;7.628;2023-07-08T01:54:32;19.80;99.90
2999;DHT22;1509;51.964;7.628;2023-07-08T01:56:58;19.90;99.90
2999;DHT22;1509;51.964;7.628;2023-07-08T01:59:24;19.80;99.90
2999;DHT22;1509;51.964;7.628;2023-07-08T02:01:51;19.70;99.90
2999;DHT22;1509;51.964;7.628;2023-07-08T02:04:20;19.70;99.90
2999;DHT22;1509;51.964;7.628;2023-07-08T02:06:57;19.70;99.90
2999;DHT22;1509;51.964;7.628;2023-07-08T02:09:23;19.70;99.90
2999;DHT22;1509;51.964;7.628;2023-07-08T02:11:50;19.60;99.90
2999;DHT22;1509;51.964;7.628;2023-07-08T02:14:16;19.60;99.90
2999;DHT22;1509;51.964;7.628;2023-07-08T02:16:42;19.40;99.90
2999;DHT22;1509;51.964;7.628;2023-07-08T02:19:08;19.60;99.90
2999;DHT22;1509;51.964;7.628;2023-07-08T02:21:33;19.60;99.90
2999;DHT22;1509;51.964;7.628;2023-07-08T02:24:00;19.60;99.90
2999;DHT22;1509;51.964;7.628;2023-07-08T02:26:26;19.60;99.90
2999;DHT22;1509;51.964;7.628;2023-07-08T02:28:52;19.60;99.90
2999;DHT22;1509;51.964;7.628;2023-07-08T02:31:17;19.50;99.90
2999;DHT22;1509;51.964;7.628;2023-07-08T02:33:43;19.40;99.90
2999;DHT22;1509;51.964;7.628;2023-07-08T02:36:09;19.50;99.90
2999;DHT22;1509;51.964;7.628;2023-07-08T02:38:34;19.70;99.90
2999;DHT22;1509;51.964;7.628;2023-07-08T02:41:00;19.50;99.90
2999;DHT22;1509;51.964;7.628;2023-07-08T02:43:26;19.50;99.90
2999;DHT22;1509;51.964;7.628;2023-07-08T02:45:52;19.30;99.90
2999;DHT22;1509;51.964;7.628;2023-07-08T02:48:18;19.60;99.90
2999;DHT22;1509;51.964;7.628;2023-07-08T02:50:44;19.40;99.90
2999;DHT22;1509;51.964;7.628;2023-07-08T02:53:09;19.40;99.90
2999;DHT22;1509;51.964;7.628;2023-07-08T02:55:35;19.40;99.90
2999;DHT22;1509;51.964;7.628;2023-07-08T02:58:00;19.20;99.90
2999;DHT22;1509;51.964;7.628;2023-07-08T03:00:26;19.50;99.90
2999;DHT22;1509;51.964;7.628;2023-07-08T03:02:52;19.30;99.90
2999;DHT22;1509;51.964;7.628;2023-07-08T03:05:17;19.70;99.90
2999;DHT22;1509;51.964;7.628;2023-07-08T03:07:43;19.40;99.90
2999;DHT22;1509;51.964;7.628;2023-07-08T03:10:09;19.40;99.90
2999;DHT22;1509;51.964;7.628;2023-07-08T03:12:34;19.30;99.90
2999;DHT22;1509;51.964;7.628;2023-07-08T03:15:00;19.30;99.90
2999;DHT22;1509;51.964;7.628;2023-07-08T03:17:26;19.30;99.90
2999;DHT22;1509;51.964;7.628;2023-07-08T03:19:51;19.30;99.90
2999;DHT22;1509;51.964;7.628;2023-07-08T03:22:17;19.60;99.90
2999;DHT22;1509;51.964;7.628;2023-07-08T03:24:45;19.30;99.90
2999;DHT22;1509;51.964;7.628;2023-07-08T03:27:14;19.10;99.90
2999;DHT22;1509;51.964;7.628;2023-07-08T03:29:40;19.30;99.90
2999;DHT22;1509;51.964;7.628;2023-07-08T03:32:09;19.30;99.90
2999;DHT22;1509;51.964;7.628;2023-07-08T03:34:35;19.30;99.90
2999;DHT22;1509;51.964;7.628;2023-07-08T03:37:01;19.40;99.90
2999;DHT22;1509;51.964;7.628;2023-07-08T03:39:26;19.20;99.90
2999;DHT22;1509;51.964;7.628;2023-07-08T03:41:55;19.30;99.90
2999;DHT22;1509;51.964;7.628;2023-07-08T03:44:20;19.30;99.90
2999;DHT22;1509;51.964;7.628;2023-07-08T03:46:48;19.40;99.90
2999;DHT22;1509;51.964;7.628;2023-07-08T03:49:18;19.20;99.90
2999;DHT22;1509;51.964;7.628;2023-07-08T03:51:48;19.30;99.90
2999;DHT22;1509;51.964;7.628;2023-07-08T03:54:14;19.20;99.90
2999;DHT22;1509;51.964;7.628;2023-07-08T03:56:40;19.30;99.90
2999;DHT22;1509;51.964;7.628;2023-07-08T03:59:06;19.60;99.90
2999;DHT22;1509;51.964;7.628;2023-07-08T04:01:32;19.70;99.90
2999;DHT22;1509;51.964;7.628;2023-07-08T04:03:58;19.30;99.90
2999;DHT22;1509;51.964;7.628;2023-07-08T04:06:25;19.30;99.90
2999;DHT22;1509;51.964;7.628;2023-07-08T04:08:51;19.30;99.90
2999;DHT22;1509;51.964;7.628;2023-07-08T04:11:19;19.40;99.90
2999;DHT22;1509;51.964;7.628;2023-07-08T04:13:45;19.40;99.90
2999;DHT22;1509;51.964;7.628;2023-07-08T04:16:19;19.30;99.90
2999;DHT22;1509;51.964;7.628;2023-07-08T04:18:45;19.50;99.90
2999;DHT22;1509;51.964;7.628;2023-07-08T04:21:10;19.50;99.90
2999;DHT22;1509;51.964;7.628;2023-07-08T04:23:36;19.50;99.90
2999;DHT22;1509;51.964;7.628;2023-07-08T04:26:02;19.40;99.90
2999;DHT22;1509;51.964;7.628;2023-07-08T04:28:30;19.50;99.90
2999;DHT22;1509;51.964;7.628;2023-07-08T04:30:55;19.50;99.90
2999;DHT22;1509;51.964;7.628;2023-07-08T04:33:21;19.50;99.90
2999;DHT22;1509;51.964;7.628;2023-07-08T04:35:47;19.60;99.90
2999;DHT22;1509;51.964;7.628;2023-07-08T04:38:22;19.90;99.90
2999;DHT22;1509;51.964;7.628;2023-07-08T04:40:49;19.70;99.90
2999;DHT22;1509;51.964;7.628;2023-07-08T04:43:17;19.70;99.90
2999;DHT22;1509;51.964;7.628;2023-07-08T04:45:45;19.70;99.90
2999;DHT22;1509;51.964;7.628;2023-07-08T04:48:13;19.70;99.90
2999;DHT22;1509;51.964;7.628;2023-07-08T04:50:43;19.80;99.90
2999;DHT22;1509;51.964;7.628;2023-07-08T04:53:10;19.80;99.90
2999;DHT22;1509;51.964;7.628;2023-07-08T04:55:42;19.90;99.90
2999;DHT22;1509;51.964;7.628;2023-07-08T04:58:08;19.90;99.90
2999;DHT22;1509;51.964;7.628;2023-07-08T05:00:34;20.00;99.90
2999;DHT22;1509;51.964;7.628;2023-07-08T05:03:00;19.90;99.90
2999;DHT22;1509;51.964;7.628;2023-07-08T05:05:26;20.00;99.90
2999;DHT22;1509;51.964;7.628;2023-07-08T05:07:52;20.20;99.90
2999;DHT22;1509;51.964;7.628;2023-07-08T05:10:18;20.10;99.90
2999;DHT22;1509;51.964;7.628;2023-07-08T05:12:44;20.10;99.90
2999;DHT22;1509;51.964;7.628;2023-07-08T05:15:10;20.00;99.90
2999;DHT22;1509;51.964;7.628;2023-07-08T05:17:37;20.30;99.90
2999;DHT22;1509;51.964;7.628;2023-07-08T05:20:07;20.20;99.90
2999;DHT22;1509;51.964;7.628;2023-07-08T05:22:34;20.30;99.90
2999;DHT22;1509;51.964;7.628;2023-07-08T05:25:00;20.30;99.90
2999;DHT22;1509;51.964;7.628;2023-07-08T05:27:25;20.10;99.90
2999;DHT22;1509;51.964;7.628;2023-07-08T05:29:51;20.30;99.90
2999;DHT22;1509;51.964;7.628;2023-07-08T05:32:17;20.40;99.90
2999;DHT22;1509;51.964;7.628;2023-07-08T05:34:43;20.60;99.90
2999;DHT22;1509;51.964;7.628;2023-07-08T05:37:10;20.40;99.90
2999;DHT22;1509;51.964;7.628;2023-07-08T05:39:36;20.50;99.90
2999;DHT22;1509;51.964;7.628;2023-07-08T05:42:02;20.60;99.90
2999;DHT22;1509;51.964;7.628;2023-07-08T05:44:28;20.60;99.90
2999;DHT22;1509;51.964;7.628;2023-07-08T05:46:53;21.00;99.90
2999;DHT22;1509;51.964;7.628;2023-07-08T05:49:19;20.70;99.90
2999;DHT22;1509;51.964;7.628;2023-07-08T05:51:45;20.80;99.90
2999;DHT22;1509;51.964;7.628;2023-07-08T05:54:10;20.80;99.90
2999;DHT22;1509;51.964;7.628;2023-07-08T05:56:36;20.90;99.90
2999;DHT22;1509;51.964;7.628;2023-07-08T05:59:03;20.80;99.90
2999;DHT22;1509;51.964;7.628;2023-07-08T06:01:29;20.90;99.90
2999;DHT22;1509;51.964;7.628;2023-07-08T06:03:55;21.00;99.90
2999;DHT22;1509;51.964;7.628;2023-07-08T06:06:23;21.10;99.90
2999;DHT22;1509;51.964;7.628;2023-07-08T06:08:49;21.00;99.90
2999;DHT22;1509;51.964;7.628;2023-07-08T06:11:15;21.30;99.90
2999;DHT22;1509;51.964;7.628;2023-07-08T06:13:41;21.30;99.90
2999;DHT22;1509;51.964;7.628;2023-07-08T06:16:06;21.10;99.90
2999;DHT22;1509;51.964;7.628;2023-07-08T06:18:32;21.40;99.90
2999;DHT22;1509;51.964;7.628;2023-07-08T06:20:58;21.50;99.90
2999;DHT22;1509;51.964;7.628;2023-07-08T06:23:27;21.60;99.90
2999;DHT22;1509;51.964;7.628;2023-07-08T06:25:53;21.60;99.90
2999;DHT22;1509;51.964;7.628;2023-07-08T06:28:19;21.80;99.90
2999;DHT22;1509;51.964;7.628;2023-07-08T06:30:45;21.80;99.90
2999;DHT22;1509;51.964;7.628;2023-07-08T06:33:12;21.90;99.90
2999;DHT22;1509;51.964;7.628;2023-07-08T06:35:38;22.00;99.90
2999;DHT22;1509;51.964;7.628;2023-07-08T06:38:04;22.10;99.90
2999;DHT22;1509;51.964;7.628;2023-07-08T06:40:31;22.10;99.90
2999;DHT22;1509;51.964;7.628;2023-07-08T06:42:57;22.20;99.90
2999;DHT22;1509;51.964;7.628;2023-07-08T06:45:22;22.30;99.90
2999;DHT22;1509;51.964;7.628;2023-07-08T06:47:48;22.40;99.90
2999;DHT22;1509;51.964;7.628;2023-07-08T06:50:14;22.40;99.90
2999;DHT22;1509;51.964;7.628;2023-07-08T06:52:39;22.50;99.90
2999;DHT22;1509;51.964;7.628;2023-07-08T06:55:08;22.60;99.90
2999;DHT22;1509;51.964;7.628;2023-07-08T06:57:34;22.60;99.90
2999;DHT22;1509;51.964;7.628;2023-07-08T07:00:00;22.70;99.90
2999;DHT22;1509;51.964;7.628;2023-07-08T07:02:26;22.70;99.90
2999;DHT22;1509;51.964;7.628;2023-07-08T07:04:52;22.70;99.90
2999;DHT22;1509;51.964;7.628;2023-07-08T07:07:21;22.90;99.90
2999;DHT22;1509;51.964;7.628;2023-07-08T07:09:46;22.90;99.90
2999;DHT22;1509;51.964;7.628;2023-07-08T07:12:12;23.00;99.90
2999;DHT22;1509;51.964;7.628;2023-07-08T07:14:37;23.00;99.90
2999;DHT22;1509;51.964;7.628;2023-07-08T07:17:03;23.10;99.90
2999;DHT22;1509;51.964;7.628;2023-07-08T07:19:29;23.20;99.90
2999;DHT22;1509;51.964;7.628;2023-07-08T07:21:54;23.30;99.90
2999;DHT22;1509;51.964;7.628;2023-07-08T07:24:20;23.40;99.90
2999;DHT22;1509;51.964;7.628;2023-07-08T07:26:45;23.50;99.90
2999;DHT22;1509;51.964;7.628;2023-07-08T07:29:11;23.60;99.90
2999;DHT22;1509;51.964;7.628;2023-07-08T07:31:37;23.70;99.90
2999;DHT22;1509;51.964;7.628;2023-07-08T07:34:05;23.80;99.90
2999;DHT22;1509;51.964;7.628;2023-07-08T07:36:31;23.90;99.90
2999;DHT22;1509;51.964;7.628;2023-07-08T07:38:57;23.90;99.90
2999;DHT22;1509;51.964;7.628;2023-07-08T07:41:22;24.00;99.90
2999;DHT22;1509;51.964;7.628;2023-07-08T07:43:48;24.20;99.90
2999;DHT22;1509;51.964;7.628;2023-07-08T07:46:14;24.30;99.90
2999;DHT22;1509;51.964;7.628;2023-07-08T07:48:40;24.40;99.90
2999;DHT22;1509;51.964;7.628;2023-07-08T07:51:06;24.50;99.90
2999;DHT22;1509;51.964;7.628;2023-07-08T07:53:32;24.60;99.90
2999;DHT22;1509;51.964;7.628;2023-07-08T07:55:59;24.60;99.90
2999;DHT22;1509;51.964;7.628;2023-07-08T07:58:25;24.70;99.90
2999;DHT22;1509;51.964;7.628;2023-07-08T08:00:51;24.80;99.90
2999;DHT22;1509;51.964;7.628;2023-07-08T08:03:17;24.90;99.90
2999;DHT22;1509;51.964;7.628;2023-07-08T08:05:43;25.00;99.90
2999;DHT22;1509;51.964;7.628;2023-07-08T08:08:09;25.10;99.90
2999;DHT22;1509;51.964;7.628;2023-07-08T08:10:35;25.20;99.90
2999;DHT22;1509;51.964;7.628;2023-07-08T08:13:01;25.30;99.90
2999;DHT22;1509;51.964;7.628;2023-07-08T08:15:28;25.40;99.90
2999;DHT22;1509;51.964;7.628;2023-07-08T08:17:54;25.50;99.90
2999;DHT22;1509;51.964;7.628;2023-07-08T08:20:21;25.60;99.90
2999;DHT22;1509;51.964;7.628;2023-07-08T08:22:48;25.70;99.90
2999;DHT22;1509;51.964;7.628;2023-07-08T08:25:18;25.90;99.90
2999;DHT22;1509;51.964;7.628;2023-07-08T08:27:44;25.80;99.90
2999;DHT22;1509;51.964;7.628;2023-07-08T08:30:11;25.90;99.90
2999;DHT22;1509;51.964;7.628;2023-07-08T08:32:36;26.00;99.90
2999;DHT22;1509;51.964;7.628;2023-07-08T08:35:03;26.10;99.90
2999;DHT22;1509;51.964;7.628;2023-07-08T08:37:28;26.20;99.90
2999;DHT22;1509;51.964;7.628;2023-07-08T08:39:54;26.30;99.90
2999;DHT22;1509;51.964;7.628;2023-07-08T08:42:29;26.40;99.90
2999;DHT22;1509;51.964;7.628;2023-07-08T08:45:00;26.50;99.90
2999;DHT22;1509;51.964;7.628;2023-07-08T08:47:44;26.90;99.90
2999;DHT22;1509;51.964;7.628;2023-07-08T08:50:34;26.70;99.90
2999;DHT22;1509;51.964;7.628;2023-07-08T08:53:04;26.80;99.90
2999;DHT22;1509;51.964;7.628;2023-07-08T08:55:30;27.00;99.90
2999;DHT22;1509;51.964;7.628;2023-07-08T08:58:23;27.10;99.90
2999;DHT22;1509;51.964;7.628;2023-07-08T09:00:59;27.30;99.90
2999;DHT22;1509;51.964;7.628;2023-07-08T09:03:57;27.30;99.90
2999;DHT22;1509;51.964;7.628;2023-07-08T09:06:32;27.40;99.90
2999;DHT22;1509;51.964;7.628;2023-07-08T09:09:03;27.60;99.90
2999;DHT22;1509;51.964;7.628;2023-07-08T09:11:56;27.80;99.90
2999;DHT22;1509;51.964;7.628;2023-07-08T09:14:30;28.10;99.90
2999;DHT22;1509;51.964;7.628;2023-07-08T09:17:22;28.30;99.90
2999;DHT22;1509;51.964;7.628;2023-07-08T09:22:36;28.70;99.90
2999;DHT22;1509;51.964;7.628;2023-07-08T09:27:41;30.20;99.90
2999;DHT22;1509;51.964;7.628;2023-07-08T09:30:14;31.10;99.90
2999;DHT22;1509;51.964;7.628;2023-07-08T09:32:40;32.60;99.90
2999;DHT22;1509;51.964;7.628;2023-07-08T09:35:07;34.10;99.90
2999;DHT22;1509;51.964;7.628;2023-07-08T09:37:38;35.40;99.90
2999;DHT22;1509;51.964;7.628;2023-07-08T09:40:33;36.70;99.90
2999;DHT22;1509;51.964;7.628;2023-07-08T09:43:02;37.80;99.90
2999;DHT22;1509;51.964;7.628;2023-07-08T09:45:28;38.20;99.90
2999;DHT22;1509;51.964;7.628;2023-07-08T09:47:56;39.20;99.90
2999;DHT22;1509;51.964;7.628;2023-07-08T09:50:27;40.10;99.90
2999;DHT22;1509;51.964;7.628;2023-07-08T09:52:55;40.00;99.90
2999;DHT22;1509;51.964;7.628;2023-07-08T09:55:23;39.70;99.90
2999;DHT22;1509;51.964;7.628;2023-07-08T09:57:51;40.50;99.30
2999;DHT22;1509;51.964;7.628;2023-07-08T10:00:25;40.20;98.80
2999;DHT22;1509;51.964;7.628;2023-07-08T10:02:55;40.40;98.50
2999;DHT22;1509;51.964;7.628;2023-07-08T10:05:30;41.00;97.60
2999;DHT22;1509;51.964;7.628;2023-07-08T10:07:58;40.00;95.70
2999;DHT22;1509;51.964;7.628;2023-07-08T10:10:32;39.60;96.70
2999;DHT22;1509;51.964;7.628;2023-07-08T10:13:02;39.90;96.20
2999;DHT22;1509;51.964;7.628;2023-07-08T10:15:35;39.30;96.10
2999;DHT22;1509;51.964;7.628;2023-07-08T10:18:02;39.20;95.90
2999;DHT22;1509;51.964;7.628;2023-07-08T10:20:38;39.10;95.70
2999;DHT22;1509;51.964;7.628;2023-07-08T10:26:06;40.50;95.70
2999;DHT22;1509;51.964;7.628;2023-07-08T10:28:43;41.50;94.70
2999;DHT22;1509;51.964;7.628;2023-07-08T10:31:20;42.40;94.20
2999;DHT22;1509;51.964;7.628;2023-07-08T10:34:11;41.40;92.30
2999;DHT22;1509;51.964;7.628;2023-07-08T10:39:49;41.30;93.90
2999;DHT22;1509;51.964;7.628;2023-07-08T10:43:10;42.10;92.80
2999;DHT22;1509;51.964;7.628;2023-07-08T10:45:31;41.40;91.80
2999;DHT22;1509;51.964;7.628;2023-07-08T10:51:05;41.70;91.60
2999;DHT22;1509;51.964;7.628;2023-07-08T10:56:39;42.40;91.20
2999;DHT22;1509;51.964;7.628;2023-07-08T10:59:10;43.00;90.40
2999;DHT22;1509;51.964;7.628;2023-07-08T11:04:47;42.60;87.80
2999;DHT22;1509;51.964;7.628;2023-07-08T11:09:57;43.90;86.40
2999;DHT22;1509;51.964;7.628;2023-07-08T11:12:34;42.80;86.90
2999;DHT22;1509;51.964;7.628;2023-07-08T11:18:06;44.10;85.60
2999;DHT22;1509;51.964;7.628;2023-07-08T11:26:22;42.80;82.60
2999;DHT22;1509;51.964;7.628;2023-07-08T11:28:54;43.00;81.90
2999;DHT22;1509;51.964;7.628;2023-07-08T11:31:23;42.70;81.80
2999;DHT22;1509;51.964;7.628;2023-07-08T11:33:50;43.10;81.90
2999;DHT22;1509;51.964;7.628;2023-07-08T11:36:17;43.40;82.30
2999;DHT22;1509;51.964;7.628;2023-07-08T11:38:52;43.60;80.70
2999;DHT22;1509;51.964;7.628;2023-07-08T11:41:20;43.20;81.20
2999;DHT22;1509;51.964;7.628;2023-07-08T11:43:49;43.20;78.90
2999;DHT22;1509;51.964;7.628;2023-07-08T11:46:25;42.70;81.40
2999;DHT22;1509;51.964;7.628;2023-07-08T11:48:55;43.00;79.30
2999;DHT22;1509;51.964;7.628;2023-07-08T11:51:24;43.40;79.60
2999;DHT22;1509;51.964;7.628;2023-07-08T11:54:11;42.90;79.40
2999;DHT22;1509;51.964;7.628;2023-07-08T11:56:49;43.30;79.30
2999;DHT22;1509;51.964;7.628;2023-07-08T11:59:18;43.90;79.80
2999;DHT22;1509;51.964;7.628;2023-07-08T12:04:29;42.40;75.20
2999;DHT22;1509;51.964;7.628;2023-07-08T12:07:17;42.10;76.40
2999;DHT22;1509;51.964;7.628;2023-07-08T12:09:59;42.30;74.90
2999;DHT22;1509;51.964;7.628;2023-07-08T12:12:30;42.70;74.60
2999;DHT22;1509;51.964;7.628;2023-07-08T12:15:26;42.60;75.40
2999;DHT22;1509;51.964;7.628;2023-07-08T12:17:56;42.50;75.60
2999;DHT22;1509;51.964;7.628;2023-07-08T12:20:26;42.80;76.70
2999;DHT22;1509;51.964;7.628;2023-07-08T12:22:52;43.60;74.60
2999;DHT22;1509;51.964;7.628;2023-07-08T12:25:21;43.40;74.70
2999;DHT22;1509;51.964;7.628;2023-07-08T12:27:48;43.30;71.20
2999;DHT22;1509;51.964;7.628;2023-07-08T12:30:15;43.10;72.30
2999;DHT22;1509;51.964;7.628;2023-07-08T12:32:42;42.80;71.10
2999;DHT22;1509;51.964;7.628;2023-07-08T12:35:25;41.90;71.90
2999;DHT22;1509;51.964;7.628;2023-07-08T12:37:52;42.50;73.50
2999;DHT22;1509;51.964;7.628;2023-07-08T12:40:21;43.10;72.20
2999;DHT22;1509;51.964;7.628;2023-07-08T12:42:47;42.40;71.50
2999;DHT22;1509;51.964;7.628;2023-07-08T12:45:19;42.40;71.10
2999;DHT22;1509;51.964;7.628;2023-07-08T12:47:46;43.10;71.60
2999;DHT22;1509;51.964;7.628;2023-07-08T12:50:12;43.70;71.30
2999;DHT22;1509;51.964;7.628;2023-07-08T12:52:38;43.80;70.10
2999;DHT22;1509;51.964;7.628;2023-07-08T12:55:04;43.50;69.20
2999;DHT22;1509;51.964;7.628;2023-07-08T12:57:33;43.20;70.20
2999;DHT22;1509;51.964;7.628;2023-07-08T12:59:59;43.20;69.90
2999;DHT22;1509;51.964;7.628;2023-07-08T13:02:27;43.10;71.30
2999;DHT22;1509;51.964;7.628;2023-07-08T13:04:59;43.30;70.30
2999;DHT22;1509;51.964;7.628;2023-07-08T13:07:35;42.30;68.70
2999;DHT22;1509;51.964;7.628;2023-07-08T13:10:03;41.90;68.10
2999;DHT22;1509;51.964;7.628;2023-07-08T13:12:32;42.10;69.20
2999;DHT22;1509;51.964;7.628;2023-07-08T13:15:02;42.40;68.90
2999;DHT22;1509;51.964;7.628;2023-07-08T13:17:28;41.50;68.10
2999;DHT22;1509;51.964;7.628;2023-07-08T13:19:54;41.40;68.70
2999;DHT22;1509;51.964;7.628;2023-07-08T13:22:21;41.60;68.20
2999;DHT22;1509;51.964;7.628;2023-07-08T13:24:58;41.60;69.30
2999;DHT22;1509;51.964;7.628;2023-07-08T13:27:25;41.90;69.50
2999;DHT22;1509;51.964;7.628;2023-07-08T13:29:56;42.00;68.40
2999;DHT22;1509;51.964;7.628;2023-07-08T13:32:30;41.50;67.20
2999;DHT22;1509;51.964;7.628;2023-07-08T13:34:56;41.30;67.30
2999;DHT22;1509;51.964;7.628;2023-07-08T13:37:22;41.50;67.80
2999;DHT22;1509;51.964;7.628;2023-07-08T13:39:53;41.00;67.00
2999;DHT22;1509;51.964;7.628;2023-07-08T13:42:19;41.20;67.00
2999;DHT22;1509;51.964;7.628;2023-07-08T13:44:46;41.10;66.90
2999;DHT22;1509;51.964;7.628;2023-07-08T13:47:26;41.20;67.20
2999;DHT22;1509;51.964;7.628;2023-07-08T13:50:05;40.90;65.90
2999;DHT22;1509;51.964;7.628;2023-07-08T13:52:32;39.80;67.00
2999;DHT22;1509;51.964;7.628;2023-07-08T13:55:00;38.70;67.10
2999;DHT22;1509;51.964;7.628;2023-07-08T13:57:34;38.30;67.80
2999;DHT22;1509;51.964;7.628;2023-07-08T13:59:59;37.90;66.60
2999;DHT22;1509;51.964;7.628;2023-07-08T14:02:28;37.50;67.00
2999;DHT22;1509;51.964;7.628;2023-07-08T14:04:55;37.30;67.40
2999;DHT22;1509;51.964;7.628;2023-07-08T14:07:25;37.40;68.40
2999;DHT22;1509;51.964;7.628;2023-07-08T14:09:54;37.40;68.60
2999;DHT22;1509;51.964;7.628;2023-07-08T14:12:23;37.30;68.90
2999;DHT22;1509;51.964;7.628;2023-07-08T14:14:49;36.80;67.50
2999;DHT22;1509;51.964;7.628;2023-07-08T14:17:19;36.70;68.00
2999;DHT22;1509;51.964;7.628;2023-07-08T14:19:46;36.50;68.80
2999;DHT22;1509;51.964;7.628;2023-07-08T14:22:21;36.70;69.40
2999;DHT22;1509;51.964;7.628;2023-07-08T14:24:47;36.80;68.50
2999;DHT22;1509;51.964;7.628;2023-07-08T14:27:13;36.80;68.40
2999;DHT22;1509;51.964;7.628;2023-07-08T14:29:42;36.60;69.30
2999;DHT22;1509;51.964;7.628;2023-07-08T14:32:26;36.50;70.20
2999;DHT22;1509;51.964;7.628;2023-07-08T14:34:57;36.50;70.60
2999;DHT22;1509;51.964;7.628;2023-07-08T14:37:24;36.50;69.70
2999;DHT22;1509;51.964;7.628;2023-07-08T14:39:50;36.50;69.80
2999;DHT22;1509;51.964;7.628;2023-07-08T14:42:17;36.60;70.00
2999;DHT22;1509;51.964;7.628;2023-07-08T14:44:46;36.50;70.80
2999;DHT22;1509;51.964;7.628;2023-07-08T14:47:15;36.40;70.60
2999;DHT22;1509;51.964;7.628;2023-07-08T14:49:41;36.40;69.70
2999;DHT22;1509;51.964;7.628;2023-07-08T14:52:07;36.30;70.80
2999;DHT22;1509;51.964;7.628;2023-07-08T14:54:33;36.10;68.10
2999;DHT22;1509;51.964;7.628;2023-07-08T14:56:59;36.10;68.40
2999;DHT22;1509;51.964;7.628;2023-07-08T14:59:29;36.10;68.90
2999;DHT22;1509;51.964;7.628;2023-07-08T15:01:58;36.00;68.50
2999;DHT22;1509;51.964;7.628;2023-07-08T15:04:24;36.00;70.10
2999;DHT22;1509;51.964;7.628;2023-07-08T15:06:50;35.90;69.00
2999;DHT22;1509;51.964;7.628;2023-07-08T15:09:17;35.90;69.20
2999;DHT22;1509;51.964;7.628;2023-07-08T15:11:44;35.80;69.10
2999;DHT22;1509;51.964;7.628;2023-07-08T15:14:22;35.50;69.20
2999;DHT22;1509;51.964;7.628;2023-07-08T15:16:51;35.20;69.60
2999;DHT22;1509;51.964;7.628;2023-07-08T15:19:18;35.10;70.90
2999;DHT22;1509;51.964;7.628;2023-07-08T15:21:44;35.20;71.90
2999;DHT22;1509;51.964;7.628;2023-07-08T15:24:12;35.40;70.70
2999;DHT22;1509;51.964;7.628;2023-07-08T15:26:46;35.30;70.50
2999;DHT22;1509;51.964;7.628;2023-07-08T15:29:20;35.30;72.40
2999;DHT22;1509;51.964;7.628;2023-07-08T15:31:46;35.40;71.20
2999;DHT22;1509;51.964;7.628;2023-07-08T15:34:14;35.40;71.70
2999;DHT22;1509;51.964;7.628;2023-07-08T15:36:40;35.50;72.20
2999;DHT22;1509;51.964;7.628;2023-07-08T15:39:06;35.50;71.40
2999;DHT22;1509;51.964;7.628;2023-07-08T15:41:31;35.50;72.20
2999;DHT22;1509;51.964;7.628;2023-07-08T15:43:58;35.50;72.10
2999;DHT22;1509;51.964;7.628;2023-07-08T15:46:42;35.50;72.50
2999;DHT22;1509;51.964;7.628;2023-07-08T15:49:14;35.50;72.80
2999;DHT22;1509;51.964;7.628;2023-07-08T15:51:41;35.40;72.50
2999;DHT22;1509;51.964;7.628;2023-07-08T15:54:06;35.30;72.40
2999;DHT22;1509;51.964;7.628;2023-07-08T15:56:32;35.10;72.50
2999;DHT22;1509;51.964;7.628;2023-07-08T15:58:58;35.10;73.40
2999;DHT22;1509;51.964;7.628;2023-07-08T16:01:24;35.00;72.60
2999;DHT22;1509;51.964;7.628;2023-07-08T16:03:50;34.90;73.60
2999;DHT22;1509;51.964;7.628;2023-07-08T16:06:17;35.00;74.10
2999;DHT22;1509;51.964;7.628;2023-07-08T16:08:43;34.90;74.10
2999;DHT22;1509;51.964;7.628;2023-07-08T16:11:15;34.90;73.50
2999;DHT22;1509;51.964;7.628;2023-07-08T16:13:42;34.90;74.40
2999;DHT22;1509;51.964;7.628;2023-07-08T16:16:12;34.90;75.10
2999;DHT22;1509;51.964;7.628;2023-07-08T16:18:38;34.90;75.20
2999;DHT22;1509;51.964;7.628;2023-07-08T16:21:05;34.90;74.00
2999;DHT22;1509;51.964;7.628;2023-07-08T16:23:31;34.80;74.10
2999;DHT22;1509;51.964;7.628;2023-07-08T16:25:56;34.80;74.40
2999;DHT22;1509;51.964;7.628;2023-07-08T16:28:33;34.60;75.20
2999;DHT22;1509;51.964;7.628;2023-07-08T16:30:59;34.50;74.90
2999;DHT22;1509;51.964;7.628;2023-07-08T16:33:25;34.40;75.50
2999;DHT22;1509;51.964;7.628;2023-07-08T16:35:51;34.40;75.30
2999;DHT22;1509;51.964;7.628;2023-07-08T16:38:17;34.40;75.50
2999;DHT22;1509;51.964;7.628;2023-07-08T16:40:43;34.40;75.80
2999;DHT22;1509;51.964;7.628;2023-07-08T16:43:41;34.30;75.80
2999;DHT22;1509;51.964;7.628;2023-07-08T16:46:09;34.20;75.70
2999;DHT22;1509;51.964;7.628;2023-07-08T16:48:35;34.30;76.30
2999;DHT22;1509;51.964;7.628;2023-07-08T16:51:01;34.20;75.70